Time;durP1;ratioP1;P1;durP2;ratioP2;P2;SDS_P1;SDS_P2;PMS_P1;PMS_P2;Temp;Humidity;BMP_temperature;BMP_pressure;BME280_temperature;BME280_humidity;BME280_pressure;Samples;Min_cycle;Max_cycle;Signal;HPM_P1;HPM_P2
2021/09/30 00:01:55;;;;;;;0.30;0.30;;;10.90;99.90;;;;;;4431893;32;20136;-77
2021/09/30 00:04:21;;;;;;;0.50;0.50;;;10.90;99.90;;;;;;4432005;32;20065;-77
2021/09/30 00:06:46;;;;;;;0.40;0.40;;;11.00;99.90;;;;;;4432141;32;20069;-77
2021/09/30 00:09:14;;;;;;;0.20;0.20;;;11.10;99.90;;;;;;4431273;32;20061;-77
2021/09/30 00:11:44;;;;;;;0.40;0.40;;;11.10;99.90;;;;;;4432722;32;20092;-77
2021/09/30 00:14:38;;;;;;;0.30;0.30;;;11.00;99.90;;;;;;4431650;32;20449;-77
2021/09/30 00:32:37;;;;;;;0.20;0.20;;;10.90;99.90;;;;;;4419976;32;20125;-77
2021/09/30 00:34:19;;;;;;;0.30;0.30;;;10.70;99.90;;;;;;4420095;32;20090;-78
2021/09/30 00:40:01;;;;;;;0.30;0.30;;;10.80;99.90;;;;;;4414617;32;20102;-77
2021/09/30 00:41:41;;;;;;;0.30;0.30;;;10.80;99.90;;;;;;4415173;32;20073;-77
2021/09/30 00:46:11;;;;;;;0.30;0.30;;;10.80;99.90;;;;;;4416211;32;20066;-77
2021/09/30 00:47:02;;;;;;;0.30;0.30;;;10.80;99.90;;;;;;4415128;32;20116;-77
2021/09/30 00:52:06;;;;;;;0.28;0.28;;;10.60;99.90;;;;;;4415538;32;20128;-77
2021/09/30 01:23:56;;;;;;;0.30;0.30;;;10.40;99.90;;;;;;4415955;32;20130;-77
2021/09/30 01:31:00;;;;;;;0.25;0.25;;;10.40;99.90;;;;;;4414625;32;20128;-77
2021/09/30 01:32:41;;;;;;;0.30;0.30;;;10.30;99.90;;;;;;4415467;32;20120;-77
2021/09/30 01:40:26;;;;;;;0.30;0.30;;;10.40;99.90;;;;;;4414856;32;20125;-77
2021/09/30 01:45:46;;;;;;;0.20;0.20;;;10.30;99.90;;;;;;4414871;32;20074;-77
2021/09/30 01:46:22;;;;;;;0.30;0.30;;;10.40;99.90;;;;;;4414892;32;20070;-78
2021/09/30 01:52:34;;;;;;;0.30;0.30;;;10.40;99.90;;;;;;4414373;32;20070;-77
2021/09/30 01:58:09;;;;;;;0.30;0.30;;;10.50;99.90;;;;;;4413340;32;20082;-77
2021/09/30 02:24:34;;;;;;;0.30;0.30;;;10.20;99.90;;;;;;4415186;32;20116;-78
2021/09/30 02:29:54;;;;;;;6.35;0.55;;;10.20;99.90;;;;;;4413997;32;20069;-77
2021/09/30 02:35:01;;;;;;;0.30;0.30;;;10.20;99.90;;;;;;4416005;32;20065;-76
2021/09/30 02:40:21;;;;;;;0.30;0.30;;;10.20;99.90;;;;;;4429617;32;20100;-77
2021/09/30 02:58:30;;;;;;;0.55;0.40;;;10.10;99.90;;;;;;4421412;32;20092;-78
2021/09/30 03:00:09;;;;;;;0.40;0.40;;;10.10;99.90;;;;;;4421378;32;20070;-77
2021/09/30 03:02:39;;;;;;;0.20;0.20;;;10.10;99.90;;;;;;4432745;32;20129;-79
2021/09/30 03:05:05;;;;;;;0.30;0.30;;;10.20;99.90;;;;;;4432580;32;20057;-77
2021/09/30 03:07:32;;;;;;;0.40;0.40;;;10.20;99.90;;;;;;4433185;32;20093;-78
2021/09/30 03:09:59;;;;;;;0.40;0.40;;;10.30;99.90;;;;;;4418317;32;20073;-77
2021/09/30 03:12:29;;;;;;;0.30;0.30;;;10.30;99.90;;;;;;4432375;32;20510;-78
2021/09/30 03:15:05;;;;;;;0.97;0.83;;;10.30;99.90;;;;;;4433798;32;20060;-77
2021/09/30 03:17:52;;;;;;;0.20;0.20;;;10.30;99.90;;;;;;4432128;32;20128;-77
2021/09/30 03:23:08;;;;;;;0.20;0.20;;;10.30;99.90;;;;;;4432279;32;20134;-77
2021/09/30 03:25:33;;;;;;;0.30;0.30;;;10.40;99.90;;;;;;4432721;32;20172;-77
2021/09/30 03:28:00;;;;;;;0.20;0.20;;;10.40;99.90;;;;;;4432242;32;20110;-77
2021/09/30 03:30:28;;;;;;;0.20;0.20;;;10.20;99.90;;;;;;4432539;32;20065;-78
2021/09/30 03:32:55;;;;;;;0.75;0.47;;;10.30;99.90;;;;;;4432812;32;20439;-77
2021/09/30 03:35:22;;;;;;;1.02;0.40;;;10.30;99.90;;;;;;4432277;32;20050;-78
2021/09/30 03:37:47;;;;;;;0.62;0.62;;;10.40;99.90;;;;;;4417766;32;20082;-76
2021/09/30 03:40:13;;;;;;;0.70;0.70;;;10.30;99.90;;;;;;4416500;32;20070;-76
2021/09/30 03:42:38;;;;;;;0.22;0.22;;;10.30;99.90;;;;;;4417469;32;20089;-77
2021/09/30 03:45:05;;;;;;;0.40;0.40;;;10.40;99.90;;;;;;4403247;32;20085;-77
2021/09/30 03:47:30;;;;;;;1.75;0.75;;;10.40;99.90;;;;;;4416930;32;20066;-78
2021/09/30 03:49:57;;;;;;;0.30;0.30;;;10.40;99.90;;;;;;4417264;32;20058;-77
2021/09/30 03:52:47;;;;;;;0.40;0.40;;;10.40;99.90;;;;;;4416238;32;20172;-76
2021/09/30 03:59:22;;;;;;;0.27;0.27;;;10.30;99.90;;;;;;4416545;32;20128;-76
2021/09/30 04:00:24;;;;;;;0.30;0.30;;;10.30;99.90;;;;;;4405613;32;20179;-76
2021/09/30 04:02:49;;;;;;;0.40;0.40;;;10.30;99.90;;;;;;4417047;32;20668;-77
2021/09/30 04:05:15;;;;;;;0.30;0.30;;;10.30;99.90;;;;;;4417342;32;20120;-77
2021/09/30 04:07:41;;;;;;;0.40;0.40;;;10.30;99.90;;;;;;4416712;32;20059;-77
2021/09/30 04:10:07;;;;;;;0.30;0.30;;;10.30;99.90;;;;;;4416095;32;20053;-77
2021/09/30 04:12:32;;;;;;;0.50;0.50;;;10.40;99.90;;;;;;4416701;32;20057;-77
2021/09/30 04:14:58;;;;;;;0.40;0.40;;;10.30;99.90;;;;;;4417033;32;20094;-77
2021/09/30 04:17:24;;;;;;;0.30;0.30;;;10.30;99.90;;;;;;4416378;32;20102;-78
2021/09/30 04:19:50;;;;;;;4.28;0.73;;;10.30;99.90;;;;;;4416293;32;20063;-76
2021/09/30 04:22:16;;;;;;;0.20;0.20;;;10.30;99.90;;;;;;4413490;32;20069;-77
2021/09/30 04:24:44;;;;;;;0.32;0.25;;;10.30;99.90;;;;;;4418696;32;20057;-77
2021/09/30 04:27:10;;;;;;;1.48;0.90;;;10.30;99.90;;;;;;4416562;32;20065;-77
2021/09/30 04:29:36;;;;;;;0.13;0.13;;;10.30;99.90;;;;;;4415808;32;20118;-76
2021/09/30 04:32:02;;;;;;;0.98;0.60;;;10.30;99.90;;;;;;4416722;32;20073;-76
2021/09/30 04:34:27;;;;;;;0.40;0.40;;;10.30;99.90;;;;;;4416525;32;20093;-78
2021/09/30 04:36:53;;;;;;;0.32;0.32;;;10.20;99.90;;;;;;4416468;32;20098;-77
2021/09/30 04:39:19;;;;;;;0.22;0.22;;;10.30;99.90;;;;;;4415814;32;20062;-77
2021/09/30 04:41:46;;;;;;;1.77;1.17;;;10.30;99.90;;;;;;4416013;32;20061;-76
2021/09/30 04:44:13;;;;;;;0.30;0.30;;;10.40;99.90;;;;;;4416696;32;20376;-78
2021/09/30 04:46:39;;;;;;;0.40;0.40;;;10.40;99.90;;;;;;4416845;32;20102;-78
2021/09/30 04:49:05;;;;;;;0.30;0.30;;;10.30;99.90;;;;;;4416253;32;20059;-77
2021/09/30 04:51:30;;;;;;;0.40;0.40;;;10.30;99.90;;;;;;4415993;32;20146;-76
2021/09/30 04:53:56;;;;;;;0.35;0.35;;;10.30;99.90;;;;;;4415002;32;20391;-77
2021/09/30 04:56:22;;;;;;;0.40;0.40;;;10.20;99.90;;;;;;4415139;32;20158;-77
2021/09/30 04:58:49;;;;;;;0.20;0.20;;;10.20;99.90;;;;;;4415834;32;20790;-76
2021/09/30 05:01:15;;;;;;;0.40;0.40;;;10.20;99.90;;;;;;4417486;32;20085;-78
2021/09/30 05:03:40;;;;;;;0.30;0.30;;;10.30;99.90;;;;;;4410728;32;20062;-76
2021/09/30 05:06:06;;;;;;;0.30;0.30;;;10.30;99.90;;;;;;4418552;32;20132;-77
2021/09/30 05:08:34;;;;;;;0.68;0.45;;;10.20;99.90;;;;;;4417935;32;20610;-78
2021/09/30 05:11:02;;;;;;;0.30;0.30;;;10.20;99.90;;;;;;4417125;32;20093;-77
2021/09/30 05:13:43;;;;;;;0.40;0.40;;;10.30;99.90;;;;;;4411918;32;20077;-77
2021/09/30 05:16:11;;;;;;;0.43;0.43;;;10.30;99.90;;;;;;4426367;32;20129;-77
2021/09/30 05:18:47;;;;;;;0.43;0.43;;;10.40;99.90;;;;;;4406287;32;20062;-77
2021/09/30 05:21:13;;;;;;;2.65;0.93;;;10.40;99.90;;;;;;4416013;32;20054;-77
2021/09/30 05:23:39;;;;;;;0.55;0.55;;;10.40;99.90;;;;;;4414281;32;20057;-78
2021/09/30 05:26:05;;;;;;;0.40;0.40;;;10.50;99.90;;;;;;4407023;32;20393;-76
2021/09/30 05:28:31;;;;;;;0.30;0.30;;;10.50;99.90;;;;;;4411508;32;20417;-77
2021/09/30 05:30:56;;;;;;;0.37;0.37;;;10.50;99.90;;;;;;4407129;32;20094;-78
2021/09/30 05:33:22;;;;;;;0.37;0.37;;;10.50;99.90;;;;;;4403267;32;20061;-76
2021/09/30 05:35:48;;;;;;;0.40;0.40;;;10.50;99.90;;;;;;4412329;32;20412;-77
2021/09/30 05:38:14;;;;;;;0.40;0.40;;;10.60;99.90;;;;;;4407977;32;20234;-77
2021/09/30 05:40:43;;;;;;;0.43;0.43;;;10.50;99.90;;;;;;4412518;32;20089;-77
2021/09/30 05:43:16;;;;;;;0.40;0.40;;;10.60;99.90;;;;;;4409749;32;20077;-77
2021/09/30 05:45:43;;;;;;;0.30;0.30;;;10.60;99.90;;;;;;4411491;32;20069;-77
2021/09/30 05:48:08;;;;;;;0.73;0.50;;;10.60;99.90;;;;;;4413184;32;20061;-77
2021/09/30 05:50:35;;;;;;;0.30;0.30;;;10.60;99.90;;;;;;4410959;32;20085;-78
2021/09/30 05:53:01;;;;;;;0.50;0.50;;;10.70;99.90;;;;;;4412722;32;20081;-77
2021/09/30 05:55:26;;;;;;;22.95;0.57;;;10.80;99.90;;;;;;4411878;32;20087;-77
2021/09/30 05:57:52;;;;;;;0.40;0.40;;;10.80;99.90;;;;;;4405645;32;20644;-77
2021/09/30 06:00:32;;;;;;;1.00;1.00;;;10.80;99.90;;;;;;4412866;32;20085;-77
2021/09/30 06:09:46;;;;;;;0.25;0.25;;;10.80;99.90;;;;;;4403488;32;20074;-77
2021/09/30 06:11:01;;;;;;;0.75;0.75;;;10.90;99.90;;;;;;4400704;32;20062;-77
2021/09/30 06:13:33;;;;;;;0.30;0.30;;;10.90;99.90;;;;;;4411514;32;20447;-78
2021/09/30 06:16:04;;;;;;;0.37;0.37;;;10.90;99.90;;;;;;4410597;32;20061;-78
2021/09/30 06:18:29;;;;;;;0.52;0.52;;;10.80;99.90;;;;;;4411724;32;20065;-77
2021/09/30 06:20:55;;;;;;;0.30;0.30;;;10.90;99.90;;;;;;4409080;32;20074;-77
2021/09/30 06:23:21;;;;;;;1.65;0.77;;;10.90;99.90;;;;;;4409537;32;74859;-77
2021/09/30 06:25:47;;;;;;;0.30;0.30;;;10.80;99.90;;;;;;4411068;32;20066;-77
2021/09/30 06:28:12;;;;;;;0.90;0.70;;;10.80;99.90;;;;;;4410396;32;20485;-77
2021/09/30 06:30:38;;;;;;;0.30;0.30;;;10.80;99.90;;;;;;4415116;32;20125;-77
2021/09/30 06:33:03;;;;;;;7.28;0.68;;;10.80;99.90;;;;;;4410726;32;20066;-77
2021/09/30 06:35:29;;;;;;;0.30;0.30;;;10.80;99.90;;;;;;4413568;32;20203;-77
2021/09/30 06:37:54;;;;;;;0.57;0.57;;;10.80;99.90;;;;;;4413708;32;20069;-77
2021/09/30 06:40:20;;;;;;;0.30;0.30;;;10.90;99.90;;;;;;4417414;32;20561;-77
2021/09/30 06:42:46;;;;;;;4.50;0.73;;;10.90;99.90;;;;;;4412413;32;20090;-77
2021/09/30 06:45:12;;;;;;;0.60;0.60;;;10.80;99.90;;;;;;4411308;32;20081;-77
2021/09/30 06:47:37;;;;;;;0.32;0.32;;;10.80;99.90;;;;;;4415706;32;20123;-77
2021/09/30 06:50:05;;;;;;;0.30;0.30;;;10.90;99.90;;;;;;4411316;32;20058;-77
2021/09/30 06:52:31;;;;;;;0.30;0.30;;;11.00;99.90;;;;;;4414362;32;20069;-77
2021/09/30 06:54:58;;;;;;;0.30;0.30;;;11.00;99.90;;;;;;4410204;32;20070;-77
2021/09/30 06:57:27;;;;;;;1.73;1.00;;;11.00;99.90;;;;;;4409144;32;20070;-77
2021/09/30 06:59:53;;;;;;;0.20;0.20;;;11.10;99.90;;;;;;4411412;32;20073;-77
2021/09/30 07:02:22;;;;;;;0.32;0.32;;;11.10;99.90;;;;;;4407737;32;20097;-77
2021/09/30 07:04:48;;;;;;;0.30;0.30;;;11.10;99.90;;;;;;4403013;32;20135;-77
2021/09/30 07:07:14;;;;;;;0.30;0.30;;;11.20;99.90;;;;;;4402281;32;20440;-77
2021/09/30 07:09:40;;;;;;;0.43;0.43;;;11.20;99.90;;;;;;4400096;32;20066;-77
2021/09/30 07:12:05;;;;;;;0.45;0.45;;;11.20;99.90;;;;;;4402219;32;20246;-77
2021/09/30 07:14:31;;;;;;;0.50;0.50;;;11.30;99.90;;;;;;4403314;32;20443;-77
2021/09/30 07:16:56;;;;;;;0.40;0.40;;;11.20;99.90;;;;;;4403076;32;20073;-77
2021/09/30 07:19:22;;;;;;;0.32;0.32;;;11.20;99.90;;;;;;4400958;32;20531;-77
2021/09/30 07:21:48;;;;;;;0.35;0.35;;;11.20;99.90;;;;;;4402713;32;20082;-77
2021/09/30 07:24:13;;;;;;;0.45;0.45;;;11.20;99.90;;;;;;4403394;32;20117;-77
2021/09/30 07:26:40;;;;;;;0.40;0.40;;;11.20;99.90;;;;;;4402066;32;20089;-77
2021/09/30 07:29:05;;;;;;;0.30;0.30;;;11.20;99.90;;;;;;4404992;32;20081;-77
2021/09/30 07:31:31;;;;;;;0.20;0.20;;;11.20;99.90;;;;;;4405673;32;20136;-77
2021/09/30 07:33:56;;;;;;;0.50;0.50;;;11.30;99.90;;;;;;4404200;32;20089;-77
2021/09/30 07:36:22;;;;;;;1.48;0.77;;;11.30;99.90;;;;;;4406439;32;20357;-77
2021/09/30 07:38:48;;;;;;;0.50;0.50;;;11.40;99.90;;;;;;4405237;32;20109;-77
2021/09/30 07:41:14;;;;;;;0.40;0.40;;;11.40;99.90;;;;;;4404565;32;20077;-76
2021/09/30 07:43:39;;;;;;;0.30;0.30;;;11.40;99.90;;;;;;4406565;32;20518;-76
2021/09/30 07:46:05;;;;;;;1.20;0.65;;;11.40;99.90;;;;;;4403987;32;20069;-77
2021/09/30 07:48:30;;;;;;;0.30;0.30;;;11.30;99.90;;;;;;4406002;32;20098;-76
2021/09/30 07:50:56;;;;;;;0.40;0.40;;;11.40;99.90;;;;;;4403525;32;20141;-77
2021/09/30 07:53:21;;;;;;;0.30;0.30;;;11.40;99.90;;;;;;4404923;32;20570;-76
2021/09/30 07:55:47;;;;;;;0.45;0.45;;;11.50;99.90;;;;;;4405916;32;20090;-77
2021/09/30 07:58:13;;;;;;;0.30;0.30;;;11.50;99.90;;;;;;4405711;32;20186;-77
2021/09/30 08:00:40;;;;;;;0.30;0.30;;;11.50;99.90;;;;;;4403794;32;20073;-77
2021/09/30 08:03:06;;;;;;;0.40;0.40;;;11.50;99.90;;;;;;4406437;32;20124;-77
2021/09/30 08:05:35;;;;;;;0.30;0.30;;;11.50;99.90;;;;;;4403895;32;20093;-77
2021/09/30 08:08:03;;;;;;;0.30;0.30;;;11.60;99.90;;;;;;4408723;32;20077;-78
2021/09/30 08:10:29;;;;;;;2.10;0.77;;;11.60;99.90;;;;;;4406462;32;20073;-77
2021/09/30 08:12:55;;;;;;;0.40;0.40;;;11.70;99.90;;;;;;4404911;32;20077;-77
2021/09/30 08:15:20;;;;;;;0.40;0.40;;;11.70;99.90;;;;;;4405215;32;20462;-77
2021/09/30 08:17:46;;;;;;;0.50;0.50;;;11.70;99.90;;;;;;4404633;32;20062;-77
2021/09/30 08:20:12;;;;;;;0.30;0.30;;;11.70;99.90;;;;;;4401977;32;20131;-77
2021/09/30 08:22:37;;;;;;;0.62;0.62;;;11.70;99.90;;;;;;4405799;32;20602;-76
2021/09/30 08:25:03;;;;;;;1.73;0.60;;;11.80;99.90;;;;;;4406425;32;20074;-76
2021/09/30 08:27:29;;;;;;;0.30;0.30;;;11.80;99.90;;;;;;4403383;32;20086;-77
2021/09/30 08:29:55;;;;;;;0.50;0.50;;;11.80;99.90;;;;;;4400450;32;21093;-77
2021/09/30 08:32:22;;;;;;;8.30;0.82;;;11.80;99.90;;;;;;4404178;32;20159;-77
2021/09/30 08:34:48;;;;;;;3.97;1.33;;;11.90;99.90;;;;;;4407552;32;20521;-77
2021/09/30 08:37:13;;;;;;;0.30;0.30;;;11.90;99.90;;;;;;4410528;32;20147;-77
2021/09/30 08:39:39;;;;;;;0.50;0.50;;;11.90;99.90;;;;;;4410723;32;20508;-77
2021/09/30 08:42:05;;;;;;;13.77;0.60;;;12.00;99.90;;;;;;4426409;32;20171;-77
2021/09/30 08:44:33;;;;;;;0.80;0.50;;;12.00;99.90;;;;;;4422793;32;20085;-77
2021/09/30 08:47:00;;;;;;;0.35;0.35;;;12.10;99.90;;;;;;4413350;32;20421;-77
2021/09/30 08:49:25;;;;;;;0.20;0.20;;;12.30;99.90;;;;;;4417575;32;20089;-77
2021/09/30 08:51:51;;;;;;;0.40;0.40;;;12.40;99.90;;;;;;4416100;32;20065;-77
2021/09/30 08:54:16;;;;;;;0.60;0.60;;;12.40;99.90;;;;;;4418793;32;20128;-77
2021/09/30 08:56:42;;;;;;;1.95;1.30;;;12.50;99.90;;;;;;4416641;32;20133;-77
2021/09/30 08:59:28;;;;;;;0.40;0.40;;;12.60;99.90;;;;;;4411208;32;20070;-77
2021/09/30 09:02:14;;;;;;;0.50;0.50;;;12.80;99.90;;;;;;4426020;32;20069;-78
2021/09/30 09:04:59;;;;;;;0.50;0.50;;;12.90;99.90;;;;;;4420495;32;20069;-77
2021/09/30 09:07:28;;;;;;;0.32;0.32;;;13.00;99.90;;;;;;4420424;32;20519;-77
2021/09/30 09:09:55;;;;;;;7.68;1.48;;;13.00;99.90;;;;;;4415734;32;20121;-77
2021/09/30 09:12:20;;;;;;;0.30;0.30;;;13.00;99.90;;;;;;4414404;32;20477;-77
2021/09/30 09:14:47;;;;;;;0.40;0.40;;;13.00;99.90;;;;;;4415152;32;20061;-78
2021/09/30 09:17:15;;;;;;;0.25;0.25;;;13.10;99.90;;;;;;4418444;32;20085;-78
2021/09/30 09:19:46;;;;;;;0.35;0.35;;;13.20;99.90;;;;;;4410533;32;20413;-78
2021/09/30 09:22:16;;;;;;;0.40;0.40;;;13.10;99.90;;;;;;4412697;32;20074;-78
2021/09/30 09:25:03;;;;;;;0.40;0.40;;;13.20;99.90;;;;;;4414194;32;20061;-78
2021/09/30 09:27:47;;;;;;;0.40;0.40;;;13.10;99.90;;;;;;4406092;32;20121;-78
2021/09/30 09:30:37;;;;;;;0.40;0.40;;;13.10;99.90;;;;;;4416308;32;20120;-77
2021/09/30 09:33:07;;;;;;;0.40;0.40;;;13.10;99.90;;;;;;4420149;32;20131;-77
2021/09/30 09:35:44;;;;;;;0.60;0.60;;;13.10;99.90;;;;;;4413347;32;20482;-77
2021/09/30 09:38:12;;;;;;;0.30;0.30;;;13.10;99.90;;;;;;4412720;32;20514;-77
2021/09/30 09:40:37;;;;;;;1.87;0.85;;;13.10;99.90;;;;;;4414366;32;20523;-77
2021/09/30 09:43:27;;;;;;;6.07;2.15;;;13.20;99.90;;;;;;4413212;32;20065;-76
2021/09/30 09:45:53;;;;;;;0.35;0.35;;;13.30;99.90;;;;;;4403326;32;20304;-77
2021/09/30 09:48:18;;;;;;;0.28;0.28;;;13.30;99.90;;;;;;4414260;32;20069;-78
2021/09/30 09:50:44;;;;;;;0.40;0.40;;;13.30;99.90;;;;;;4411695;32;20108;-78
2021/09/30 09:53:09;;;;;;;0.37;0.37;;;13.40;99.90;;;;;;4412453;32;20434;-77
2021/09/30 09:55:38;;;;;;;0.30;0.30;;;13.40;99.90;;;;;;4415809;32;20082;-77
2021/09/30 09:58:16;;;;;;;0.35;0.35;;;13.50;99.90;;;;;;4411827;32;20097;-77
2021/09/30 10:00:59;;;;;;;0.68;0.68;;;13.50;99.90;;;;;;4418466;32;20078;-77
2021/09/30 10:03:30;;;;;;;0.47;0.47;;;13.50;99.90;;;;;;4413364;32;20170;-77
2021/09/30 10:05:57;;;;;;;;;;;13.60;99.90;;;;;;4414093;32;20066;-76
2021/09/30 10:08:22;;;;;;;0.40;0.40;;;13.60;99.90;;;;;;4415845;32;19952;-77
2021/09/30 10:10:53;;;;;;;0.30;0.30;;;13.70;99.90;;;;;;4413007;32;20074;-78
2021/09/30 10:13:19;;;;;;;0.30;0.30;;;13.80;99.90;;;;;;4410175;32;20065;-77
2021/09/30 10:15:46;;;;;;;0.43;0.43;;;14.00;99.90;;;;;;4412879;32;20135;-77
2021/09/30 10:18:12;;;;;;;0.45;0.45;;;14.20;99.90;;;;;;4416741;32;20077;-77
2021/09/30 10:20:40;;;;;;;0.30;0.30;;;14.30;99.90;;;;;;4418842;32;20559;-77
2021/09/30 10:23:07;;;;;;;0.40;0.40;;;14.40;99.90;;;;;;4423114;32;20077;-77
2021/09/30 10:25:36;;;;;;;0.60;0.60;;;14.50;99.90;;;;;;4420925;32;20501;-77
2021/09/30 10:28:08;;;;;;;0.40;0.40;;;14.50;99.90;;;;;;4421202;32;20069;-77
2021/09/30 10:30:43;;;;;;;0.40;0.40;;;14.60;99.90;;;;;;4421014;32;20388;-77
2021/09/30 10:33:11;;;;;;;0.40;0.40;;;14.70;99.90;;;;;;4421292;32;20514;-77
2021/09/30 10:35:41;;;;;;;0.30;0.30;;;14.80;99.90;;;;;;4426213;32;20446;-77
2021/09/30 10:38:28;;;;;;;0.30;0.30;;;14.80;99.90;;;;;;4427198;32;20125;-77
2021/09/30 10:41:13;;;;;;;0.50;0.50;;;14.90;99.90;;;;;;4414787;32;20518;-77
2021/09/30 10:43:42;;;;;;;0.30;0.30;;;14.90;99.90;;;;;;4417841;32;20438;-77
2021/09/30 10:46:30;;;;;;;0.47;0.47;;;15.00;99.90;;;;;;4412960;32;20061;-77
2021/09/30 10:48:56;;;;;;;0.43;0.43;;;15.20;99.90;;;;;;4414844;32;20097;-77
2021/09/30 10:51:23;;;;;;;0.55;0.55;;;15.30;99.90;;;;;;4425506;32;20074;-78
2021/09/30 10:53:51;;;;;;;0.30;0.30;;;15.30;99.90;;;;;;4421765;32;20061;-77
2021/09/30 10:56:37;;;;;;;0.30;0.30;;;15.30;99.90;;;;;;4422100;32;20076;-77
2021/09/30 10:59:15;;;;;;;0.40;0.40;;;15.40;99.90;;;;;;4425637;32;20545;-77
2021/09/30 11:01:52;;;;;;;0.50;0.50;;;15.50;99.90;;;;;;4429340;32;20086;-78
2021/09/30 11:04:18;;;;;;;0.30;0.30;;;15.60;99.90;;;;;;4423388;32;20081;-78
2021/09/30 11:07:06;;;;;;;0.50;0.50;;;15.60;99.90;;;;;;4428649;32;20128;-78
2021/09/30 11:09:32;;;;;;;0.40;0.40;;;15.60;99.90;;;;;;4419739;32;20061;-77
2021/09/30 11:12:13;;;;;;;0.85;0.65;;;15.60;99.90;;;;;;4428985;32;20507;-79
2021/09/30 11:14:59;;;;;;;0.47;0.47;;;15.80;99.90;;;;;;4426622;32;20105;-77
2021/09/30 11:17:40;;;;;;;0.30;0.30;;;15.90;99.90;;;;;;4413602;32;20120;-77
2021/09/30 11:20:35;;;;;;;0.40;0.40;;;16.00;99.90;;;;;;4431295;32;20136;-77
2021/09/30 11:23:00;;;;;;;0.55;0.55;;;16.10;99.90;;;;;;4419022;32;20062;-78
2021/09/30 11:26:06;;;;;;;0.30;0.30;;;16.20;99.90;;;;;;4426358;32;20119;-77
2021/09/30 11:28:31;;;;;;;0.30;0.30;;;16.20;99.90;;;;;;4411219;32;20093;-78
2021/09/30 11:31:23;;;;;;;0.40;0.40;;;16.10;99.90;;;;;;4430719;32;20069;-77
2021/09/30 11:33:49;;;;;;;0.32;0.32;;;15.90;99.90;;;;;;4416075;32;20073;-78
2021/09/30 11:36:15;;;;;;;1.85;1.00;;;15.70;99.90;;;;;;4426662;32;20116;-78
2021/09/30 11:38:42;;;;;;;1.00;0.52;;;15.50;99.90;;;;;;4426641;32;20088;-77
2021/09/30 11:41:09;;;;;;;13.85;0.60;;;15.50;99.90;;;;;;4422707;32;20081;-78
2021/09/30 11:43:35;;;;;;;0.40;0.40;;;15.40;99.90;;;;;;4423387;32;20061;-77
2021/09/30 11:46:24;;;;;;;0.22;0.22;;;15.30;99.90;;;;;;4419460;32;20084;-77
2021/09/30 11:49:01;;;;;;;0.30;0.30;;;15.30;99.90;;;;;;4417637;32;20090;-77
2021/09/30 11:51:39;;;;;;;0.70;0.57;;;15.30;99.90;;;;;;4419587;32;20073;-77
2021/09/30 11:54:07;;;;;;;0.50;0.50;;;15.30;99.90;;;;;;4420539;32;20136;-77
2021/09/30 11:56:47;;;;;;;0.50;0.50;;;15.30;99.90;;;;;;4424794;32;20070;-77
2021/09/30 11:59:16;;;;;;;0.50;0.50;;;15.20;99.90;;;;;;4425449;32;20133;-77
2021/09/30 12:01:45;;;;;;;0.75;0.75;;;15.30;99.90;;;;;;4424576;32;20542;-77
2021/09/30 12:04:13;;;;;;;0.40;0.40;;;15.30;99.90;;;;;;4424103;32;20089;-77
2021/09/30 12:06:43;;;;;;;0.40;0.40;;;15.20;99.90;;;;;;4418565;32;20070;-77
2021/09/30 12:09:11;;;;;;;0.55;0.55;;;15.20;99.90;;;;;;4423528;32;20074;-77
2021/09/30 12:11:37;;;;;;;15.68;0.50;;;15.20;99.90;;;;;;4418492;32;20073;-77
2021/09/30 12:14:06;;;;;;;0.50;0.50;;;15.20;99.90;;;;;;4423408;32;20072;-77
2021/09/30 12:16:32;;;;;;;0.43;0.43;;;15.10;99.90;;;;;;4421287;32;20094;-77
2021/09/30 12:19:00;;;;;;;0.30;0.30;;;15.10;99.90;;;;;;4414739;32;20065;-77
2021/09/30 12:21:35;;;;;;;0.40;0.40;;;15.10;99.90;;;;;;4412969;32;20081;-77
2021/09/30 12:24:02;;;;;;;0.30;0.30;;;15.20;99.90;;;;;;4413480;32;20527;-77
2021/09/30 12:26:30;;;;;;;0.70;0.70;;;15.30;99.90;;;;;;4412043;32;20061;-77
2021/09/30 12:28:56;;;;;;;0.30;0.30;;;15.70;99.90;;;;;;4413201;32;20086;-78
2021/09/30 12:31:22;;;;;;;0.40;0.40;;;16.50;99.90;;;;;;4412774;32;20500;-78
2021/09/30 12:33:47;;;;;;;1.23;0.80;;;17.50;99.90;;;;;;4415318;32;20078;-78
2021/09/30 12:36:14;;;;;;;0.57;0.40;;;18.40;99.90;;;;;;4414405;32;20117;-78
2021/09/30 12:38:40;;;;;;;0.30;0.30;;;19.00;99.90;;;;;;4414525;32;20086;-79
2021/09/30 12:41:06;;;;;;;0.57;0.45;;;19.50;99.90;;;;;;4412095;32;20086;-77
2021/09/30 12:43:33;;;;;;;0.40;0.40;;;19.60;99.90;;;;;;4415617;32;20062;-77
2021/09/30 12:46:03;;;;;;;0.40;0.40;;;19.40;99.80;;;;;;4412823;32;20078;-77
2021/09/30 12:48:29;;;;;;;0.30;0.30;;;19.80;99.10;;;;;;4414998;32;20447;-78
2021/09/30 12:51:00;;;;;;;0.25;0.25;;;20.00;98.70;;;;;;4414404;32;20070;-78
2021/09/30 12:53:27;;;;;;;0.20;0.20;;;20.20;97.80;;;;;;4415835;32;20066;-78
2021/09/30 12:56:11;;;;;;;0.22;0.22;;;20.40;97.90;;;;;;4415303;32;20095;-79
2021/09/30 12:58:40;;;;;;;3.05;0.40;;;20.20;97.70;;;;;;4409484;32;20150;-77
2021/09/30 13:01:28;;;;;;;0.30;0.30;;;20.20;97.40;;;;;;4414346;32;20069;-77
2021/09/30 13:04:02;;;;;;;1.23;0.40;;;19.50;98.10;;;;;;4410602;32;20072;-77
2021/09/30 13:06:28;;;;;;;0.40;0.40;;;18.90;98.80;;;;;;4411289;32;20152;-78
2021/09/30 13:08:53;;;;;;;0.30;0.30;;;18.60;99.10;;;;;;4438928;27;20085;-65
2021/09/30 13:11:39;;;;;;;0.10;0.10;;;18.50;99.10;;;;;;4412306;32;20065;-66
2021/09/30 13:14:13;;;;;;;0.30;0.30;;;18.20;99.40;;;;;;4405108;32;20105;-65
2021/09/30 13:16:40;;;;;;;2.40;1.00;;;18.00;99.00;;;;;;4413474;32;20141;-65
2021/09/30 13:19:05;;;;;;;0.35;0.35;;;17.90;99.50;;;;;;4408385;32;20081;-65
2021/09/30 13:21:50;;;;;;;0.45;0.45;;;17.80;99.30;;;;;;4409104;32;20388;-65
2021/09/30 13:24:16;;;;;;;2.20;0.73;;;17.60;99.80;;;;;;4395330;32;20595;-65
2021/09/30 13:26:41;;;;;;;0.30;0.30;;;17.30;99.00;;;;;;4408060;32;20465;-65
2021/09/30 13:29:07;;;;;;;5.75;1.00;;;17.10;99.20;;;;;;4409522;32;20496;-65
2021/09/30 13:31:33;;;;;;;0.30;0.30;;;17.00;99.90;;;;;;4409116;32;20085;-65
2021/09/30 13:33:59;;;;;;;2.92;0.93;;;17.10;99.90;;;;;;4408257;32;20460;-65
2021/09/30 13:36:24;;;;;;;0.30;0.30;;;17.20;99.90;;;;;;4407141;32;20090;-65
2021/09/30 13:38:49;;;;;;;0.25;0.25;;;17.30;99.90;;;;;;4407585;32;20589;-65
2021/09/30 13:41:15;;;;;;;0.40;0.40;;;17.30;99.90;;;;;;4407195;32;20073;-66
2021/09/30 13:43:40;;;;;;;2.15;0.62;;;17.00;99.60;;;;;;4407575;32;20089;-66
2021/09/30 13:46:06;;;;;;;0.40;0.40;;;16.70;99.90;;;;;;4415853;32;20511;-66
2021/09/30 13:48:31;;;;;;;0.40;0.40;;;16.70;99.70;;;;;;4412548;32;20062;-66
2021/09/30 13:50:57;;;;;;;0.30;0.30;;;17.00;99.90;;;;;;4407856;32;20169;-66
2021/09/30 13:53:22;;;;;;;0.30;0.30;;;17.70;99.40;;;;;;4408104;32;20159;-63
2021/09/30 13:55:48;;;;;;;0.30;0.30;;;18.30;98.00;;;;;;4408409;32;20087;-63
2021/09/30 13:58:13;;;;;;;8.77;1.17;;;18.10;97.80;;;;;;4408444;32;20153;-63
2021/09/30 14:00:39;;;;;;;0.30;0.30;;;17.70;98.80;;;;;;4412222;32;20070;-66
2021/09/30 14:03:06;;;;;;;0.50;0.50;;;17.50;99.10;;;;;;4411681;32;20131;-63
2021/09/30 14:05:31;;;;;;;0.37;0.37;;;17.20;99.90;;;;;;4412480;32;20082;-63
2021/09/30 14:07:57;;;;;;;0.43;0.43;;;17.20;99.90;;;;;;4406961;32;20066;-63
2021/09/30 14:52:33;;;;;;;10.02;0.45;;;16.20;99.90;;;;;;4391245;32;20447;-63
2021/09/30 14:54:59;;;;;;;0.40;0.40;;;16.20;99.90;;;;;;4393422;32;20078;-63
2021/09/30 14:57:24;;;;;;;0.40;0.40;;;16.20;99.90;;;;;;4395694;32;20122;-64
2021/09/30 14:59:50;;;;;;;0.57;0.40;;;16.10;99.90;;;;;;4395995;32;20425;-64
2021/09/30 15:02:15;;;;;;;14.10;0.55;;;16.10;99.90;;;;;;4397800;32;20070;-64
2021/09/30 15:04:40;;;;;;;2.80;1.45;;;16.10;99.90;;;;;;4397733;32;20066;-65
2021/09/30 15:07:06;;;;;;;0.30;0.30;;;16.00;99.90;;;;;;4395656;32;20578;-64
2021/09/30 15:09:32;;;;;;;0.30;0.30;;;16.00;99.90;;;;;;4402868;32;20099;-64
2021/09/30 15:11:59;;;;;;;0.50;0.50;;;16.00;99.90;;;;;;4378963;32;20113;-64
2021/09/30 15:14:26;;;;;;;0.45;0.45;;;15.90;99.90;;;;;;4368550;32;20071;-64
2021/09/30 15:16:56;;;;;;;0.30;0.30;;;15.80;99.90;;;;;;4380886;32;20070;-64
2021/09/30 15:19:25;;;;;;;0.75;0.40;;;15.80;99.90;;;;;;4379915;32;20066;-64
2021/09/30 15:21:52;;;;;;;0.35;0.35;;;15.80;99.90;;;;;;4397304;32;20092;-64
2021/09/30 15:24:19;;;;;;;0.30;0.30;;;15.80;99.90;;;;;;4402860;32;20074;-65
2021/09/30 15:26:45;;;;;;;0.30;0.30;;;15.70;99.90;;;;;;4407053;32;20085;-64
2021/09/30 15:29:12;;;;;;;0.30;0.30;;;15.70;99.90;;;;;;4396359;32;20065;-64
2021/09/30 15:31:39;;;;;;;0.32;0.32;;;15.70;99.90;;;;;;4382692;32;20073;-65
2021/09/30 15:34:05;;;;;;;0.40;0.40;;;15.70;99.90;;;;;;4388700;32;20562;-64
2021/09/30 15:36:32;;;;;;;0.50;0.50;;;15.60;99.90;;;;;;4404946;32;20131;-64
2021/09/30 15:39:00;;;;;;;0.40;0.40;;;15.60;99.90;;;;;;4402918;32;20070;-64
2021/09/30 15:41:30;;;;;;;0.62;0.62;;;15.50;99.90;;;;;;4411739;32;20057;-65
2021/09/30 15:43:55;;;;;;;0.40;0.40;;;15.40;99.90;;;;;;4403241;32;20062;-65